SKBOSKCG

Guest
Details From SKBO - Eldorado Intl
To SKCG - Rafael Nunez
Flight Number -
Tags Generated
Created
Modified
Stats Distance 353 nm / 653 km
Max Altitude 0 ft / 0 m
Waypoints 3
Social Downloads 7
Likes 0
Share VATSIM

Download

Looking for another format? Having issues loading an existing format? Contact us
Advertisement - Login to hide

Notes

Generated

Route

SKBO CTG10 SKCG

ID Type Via Altitude Latitude Longitude Leg Dist Tot Dist Heading (true) Name
O SKBO APT - 0 ft / 0 m 4.71050˚ -74.16917˚ - 0 nm - -
CTG10 FIX - 0 ft / 0 m 10.38509˚ -75.50667˚ 349 nm 349 nm 347° / 347° -
O SKCG APT - 0 ft / 0 m 10.43063˚ -75.51344˚ 2 nm 352 nm 352° / 352° -

Altitude Profile

Advertisement - Login to hide

Weather


0- 5 10 15 20 25 30 35+ Temperature / ° C

Clouds and Precipitation
Forecast for 2017-12-11 12:00 UTC. Updated an hour ago

Ground ~20,000 ft ~40,000 ft Winds

SKBO

Details ICAO SKBO (BOG)
Name Bogota - El Dorado Intl
Region Colombia
Timezone America/Bogota (UTC-5.0)
Stats Elevation 8,361 ft / 2,548 m (AMSL)
Location 4.701594° -74.146946°
Runways 2
Magnetic Variation 7.266° W

METAR

SKBO 110800Z 25003KT 9999 FEW015 BKN070 12/10 A3029

Decode

TAF

Not found

Departure Runways

ID Width Length Bearing (true) Bearing (mag) Surface Threshold Offset Overrun Length
13L 148 ft / 45 m 12,482 ft / 3,804 m 127.21° 134.48° Asphalt 0 ft / 0 m 0 ft / 0 m
13R 148 ft / 45 m 12,494 ft / 3,808 m 127.23° 134.50° Asphalt 0 ft / 0 m 200 ft / 61 m
31L 148 ft / 45 m 12,494 ft / 3,808 m 307.23° 314.50° Asphalt 0 ft / 0 m 190 ft / 58 m
31R 148 ft / 45 m 12,482 ft / 3,804 m 307.21° 314.48° Asphalt 0 ft / 0 m 0 ft / 0 m

SKCG

Details ICAO SKCG (CTG)
Name RAFAEL NUNEZ
Region Colombia
Timezone America/Bogota (UTC-5.0)
Stats Elevation 4 ft / 1 m (AMSL)
Location 10.442379° -75.512961°
Runways 1
Magnetic Variation 7.203° W

METAR

SKCG 110800Z VRB02KT 9999 FEW017 SCT250 26/25 A2981

Decode

TAF

Not found

Destination Runways

ID Width Length Bearing (true) Bearing (mag) Surface Threshold Offset Overrun Length
01 148 ft / 45 m 8,584 ft / 2,616 m 2.31° 9.51° Asphalt 0 ft / 0 m 180 ft / 55 m
19 148 ft / 45 m 8,584 ft / 2,616 m 182.31° 189.51° Asphalt 190 ft / 58 m 0 ft / 0 m

Popular Alternatives